WAGO2: Chouteau Lock And Dam (L&D 17)

Data processed at Thu Jan 23 2020 22:55


All information presented herein is the property of the government of the United States of America and may be revised or deleted at any time without prior notice.
Dissemination of this information without the expressed written consent of the Public Affairs Office, Tulsa District U.S. Army Corps of Engineers is strictly prohibited.
These data are gathered electronically and, as presented, have not undergone any form of quality control. These data are not guaranteed to be valid or correct.
Go to home page.
Go to station list.
Go to home page.

Upstream stations:

Downstream station:
Previous Day
Next Day
Current Day
    
SHEF ID:       WAGO2     Chouteau LD17
STATION TYPE:  NAVIGATION LOCK
Navigation Pool:  Bottom =   511.00, Top =   511.50

               PRECIP ELEVATION   STORAGE   TW-ELEV    INFLOW   RELEASE  AIR-TEMP  WIND-DIRWIND-SPEED REL-HUMID SOLAR-RAD   VOLTAGE  BAT-LOAD
                   in        ft     ac-ft        ft       cfs       cfs         F       deg       mph         %      W/m2      volt      volt
              Ccp-Rev   Ccp-Rev   Ccp-Rev   Ccp-Rev  Rev-Regi  Rev-Regi   Ccp-Rev   Ccp-Rev   Ccp-Rev   Ccp-Rev   Ccp-Rev   Ccp-Rev   Ccp-Rev
(US/Central)
01/23 00:00      0.00    512.02     24892    495.07     16666     13734     37.58    150.60      4.90     96.72      0.00     12.75     12.21
01/23 01:00      0.02    511.99     24817    495.09     13964     13700     37.29    158.20      3.70     97.59      0.00     12.76     12.25
01/23 02:00      0.00    512.50     26135    495.11     13644     13700     37.15    157.10      4.40     97.85      0.00     12.76     12.36
01/23 03:00      0.00    512.10     25099    495.15     16144     13700     37.13    156.40      4.00     98.11      0.00     12.75     12.22
01/23 04:00      0.00    512.40     25876    495.17     16011     13700     37.06    163.10      3.00     98.40      0.00     12.75     12.14
01/23 05:00      0.01    512.41     25902    495.21     12321     13700     37.02    162.40      2.70     98.50      0.00     12.75     12.19
01/23 06:00      0.00    512.36     25772    495.34     14892     13700     37.02    165.60      2.70     98.61      0.00     12.74     12.21
01/23 07:00      0.00    512.28     25565    495.47     14392     13700     36.91    164.70      3.20     98.75      0.00     12.74     12.21
01/23 08:00      0.00    512.22     25410    495.69     13736     15900     37.00    163.00      4.10     98.63      0.00     12.73     12.15
01/23 09:00      0.00    512.37     25798    495.66     14834     15900     37.08    170.20      3.00     98.61      2.40     12.77     12.21
01/23 10:00      0.00    512.17     25280    495.73     15996     17000     37.58    161.00      4.40     98.63     44.40     12.96     12.34
01/23 11:00      0.00    512.19     25332    495.75     16404     17000     38.93    163.10      3.70     97.99     55.30     13.06     12.45
01/23 12:00      0.00    512.19     25332    495.77     15997     17000     41.43    195.10      2.10     96.49    136.10     13.50     12.74
01/23 13:00      0.00    512.16     25254    495.79     16812     17000     44.37    284.70      3.60     89.15    112.00     13.39     12.90
01/23 14:00      0.00    512.21     25384    495.82     16749     17000     45.48    300.30      2.30     84.62    128.10     13.57     12.81
01/23 15:00      0.00    512.14     25203    495.82     15699     17000     47.95    305.60      2.60     78.15    199.90     13.58     12.89
01/23 16:00      0.00    512.15     25228    495.78     16624     17000     50.02    322.80      5.40     66.31    236.80     13.61     12.99
01/23 17:00      0.00    511.98     24795    495.57     16123     17000     50.34    273.40      2.80     61.86     40.90     13.26     12.76
01/23 18:00      0.00    512.10     25099    495.42     16812     17000     48.61    165.10      1.40     71.19     24.10     13.08     12.60
01/23 19:00      0.00    512.07     25021    495.21     17125     17000     48.52    265.60      2.80     65.76      0.00     13.03     12.50
01/23 20:00      0.01    512.11     25125    495.13     17549     17000     45.99    317.20     13.30     75.95      0.00     12.98     12.47
01/23 21:00      0.02    512.17     25280    495.03     17188     17000     42.55    293.40      8.40     85.04      0.00     12.95     12.44
01/23 22:00      0.01    512.07     25021    494.99     15746     17000     41.88    289.40      7.10     84.26      0.00     12.93     12.40
01/23 23:00      ----      ----      ----      ----      ----      ----      ----      ----      ----      ----      ----      ----      ----